Time;durP1;ratioP1;P1;durP2;ratioP2;P2;SDS_P1;SDS_P2;PMS_P1;PMS_P2;Temp;Humidity;BMP_temperature;BMP_pressure;BME280_temperature;BME280_humidity;BME280_pressure;Samples;Min_cycle;Max_cycle;Signal;HPM_P1;HPM_P2
2021/10/09 00:00:57;;;;;;;15.67;14.17;;;13.70;99.90;;;;;;5035912;28;20223;-80
2021/10/09 00:03:23;;;;;;;16.80;15.10;;;13.70;99.90;;;;;;5040176;28;20219;-80
2021/10/09 00:05:48;;;;;;;17.77;15.97;;;13.60;99.90;;;;;;5053695;28;20637;-80
2021/10/09 00:08:16;;;;;;;19.80;15.27;;;13.60;99.90;;;;;;5031030;28;20275;-80
2021/10/09 00:10:43;;;;;;;16.33;14.70;;;13.50;99.90;;;;;;5044584;28;20216;-80
2021/10/09 00:13:09;;;;;;;17.13;14.40;;;13.50;99.90;;;;;;5035810;28;20852;-80
2021/10/09 00:15:35;;;;;;;16.38;14.73;;;13.40;99.90;;;;;;5053290;28;20535;-80
2021/10/09 00:18:01;;;;;;;17.90;14.27;;;13.40;99.90;;;;;;5053309;28;20201;-80
2021/10/09 00:20:31;;;;;;;18.43;14.90;;;13.40;99.90;;;;;;5052838;28;20169;-80
2021/10/09 00:22:57;;;;;;;16.67;14.98;;;13.40;99.90;;;;;;5053600;28;20564;-80
2021/10/09 00:25:24;;;;;;;17.67;14.80;;;13.40;99.90;;;;;;5053340;28;20193;-80
2021/10/09 00:27:49;;;;;;;17.50;15.10;;;13.30;99.90;;;;;;5053178;28;20673;-80
2021/10/09 00:30:15;;;;;;;17.40;15.17;;;13.30;99.90;;;;;;5035162;28;20255;-79
2021/10/09 00:32:41;;;;;;;15.90;13.97;;;13.30;99.90;;;;;;5035110;28;20618;-80
2021/10/09 00:35:07;;;;;;;18.07;16.27;;;13.20;99.90;;;;;;5035348;28;20594;-80
2021/10/09 00:37:33;;;;;;;17.92;15.00;;;13.20;99.90;;;;;;5035016;28;20188;-79
2021/10/09 00:39:59;;;;;;;16.43;14.77;;;13.20;99.90;;;;;;5055933;28;20256;-79
2021/10/09 00:42:25;;;;;;;16.15;14.48;;;13.20;99.90;;;;;;5034771;28;20259;-80
2021/10/09 00:44:51;;;;;;;17.23;15.40;;;13.10;99.90;;;;;;5035366;28;20692;-80
2021/10/09 00:47:17;;;;;;;15.10;13.37;;;13.10;99.90;;;;;;5052677;28;20661;-81
2021/10/09 00:49:43;;;;;;;17.88;15.15;;;13.00;99.90;;;;;;5052905;28;20599;-80
2021/10/09 00:52:10;;;;;;;17.90;15.55;;;13.00;99.90;;;;;;5051745;28;20273;-80
2021/10/09 00:54:42;;;;;;;17.27;15.48;;;12.90;99.90;;;;;;5052644;28;20197;-80
2021/10/09 00:57:08;;;;;;;19.75;16.02;;;12.90;99.90;;;;;;5034514;28;20196;-79
2021/10/09 00:59:37;;;;;;;20.60;15.18;;;12.90;99.90;;;;;;5034969;28;20201;-80
2021/10/09 01:02:03;;;;;;;18.10;15.40;;;12.80;99.90;;;;;;5034549;28;20502;-79
2021/10/09 01:04:34;;;;;;;19.25;16.77;;;12.80;99.90;;;;;;5034856;28;20165;-79
2021/10/09 01:07:01;;;;;;;17.13;14.98;;;12.80;99.90;;;;;;5052556;28;20207;-79
2021/10/09 01:09:27;;;;;;;17.42;15.65;;;12.70;99.90;;;;;;5052135;28;20196;-79
2021/10/09 01:11:53;;;;;;;18.95;16.92;;;12.70;99.90;;;;;;5034314;28;20196;-79
2021/10/09 01:14:23;;;;;;;16.85;15.00;;;12.70;99.90;;;;;;5034497;28;20180;-79
2021/10/09 01:16:49;;;;;;;16.53;14.83;;;12.70;99.90;;;;;;5052796;28;20529;-79
2021/10/09 01:19:15;;;;;;;17.10;15.30;;;12.70;99.90;;;;;;5034296;28;20157;-79
2021/10/09 01:21:48;;;;;;;18.58;15.13;;;12.60;99.90;;;;;;5017488;28;20172;-79
2021/10/09 01:24:16;;;;;;;16.65;15.00;;;12.60;99.90;;;;;;5034260;28;20172;-79
2021/10/09 01:26:43;;;;;;;18.48;15.85;;;12.50;99.90;;;;;;5034111;28;20161;-80
2021/10/09 01:29:11;;;;;;;20.48;16.08;;;12.50;99.90;;;;;;5034366;28;20169;-77
2021/10/09 01:31:39;;;;;;;18.73;16.88;;;12.50;99.90;;;;;;5033933;28;20510;-79
2021/10/09 01:34:05;;;;;;;23.20;17.10;;;12.50;99.90;;;;;;5051837;28;20171;-79
2021/10/09 01:36:33;;;;;;;17.77;15.87;;;12.50;99.90;;;;;;5034270;28;20169;-80
2021/10/09 01:38:59;;;;;;;19.50;16.20;;;12.50;99.90;;;;;;5033910;28;20185;-79
2021/10/09 01:41:41;;;;;;;22.02;16.75;;;12.40;99.90;;;;;;5033942;28;20247;-79
2021/10/09 01:44:08;;;;;;;18.27;15.98;;;12.30;99.90;;;;;;5033840;28;20533;-79
2021/10/09 01:46:34;;;;;;;20.60;16.88;;;12.40;99.90;;;;;;5017704;28;20250;-79
2021/10/09 01:49:00;;;;;;;18.13;16.33;;;12.30;99.90;;;;;;5034184;28;20169;-79
2021/10/09 01:51:27;;;;;;;18.42;15.48;;;12.30;99.90;;;;;;5033660;28;20173;-79
2021/10/09 01:53:54;;;;;;;17.30;15.50;;;12.30;99.90;;;;;;5020714;28;20207;-78
2021/10/09 01:56:19;;;;;;;20.23;16.80;;;12.20;99.90;;;;;;5051781;28;20260;-78
2021/10/09 01:58:45;;;;;;;17.83;15.97;;;12.20;99.90;;;;;;5017384;28;20185;-78
2021/10/09 02:01:20;;;;;;;19.83;16.75;;;12.20;99.90;;;;;;5033270;28;20580;-78
2021/10/09 02:03:48;;;;;;;20.95;18.60;;;12.10;99.90;;;;;;5017435;28;20181;-78
2021/10/09 02:06:15;;;;;;;22.30;18.33;;;12.10;99.90;;;;;;5017152;28;20172;-78
2021/10/09 02:08:41;;;;;;;18.30;16.30;;;12.10;99.90;;;;;;5052362;28;20189;-78
2021/10/09 02:11:11;;;;;;;21.50;17.85;;;12.00;99.90;;;;;;5033051;28;20583;-79
2021/10/09 02:27:05;;;;;;;22.15;16.92;;;11.90;99.90;;;;;;5033257;28;20193;-79
2021/10/09 02:29:32;;;;;;;22.48;18.27;;;11.90;99.90;;;;;;5033703;28;20172;-78
2021/10/09 02:31:58;;;;;;;20.57;17.17;;;11.80;99.90;;;;;;5020224;28;20668;-79
2021/10/09 02:34:25;;;;;;;22.60;16.00;;;11.80;99.90;;;;;;5033662;28;20177;-79
2021/10/09 02:36:50;;;;;;;24.43;18.00;;;11.80;99.90;;;;;;5033071;28;20165;-79
2021/10/09 02:39:17;;;;;;;23.38;20.02;;;11.80;99.90;;;;;;5033557;28;20165;-79
2021/10/09 02:41:43;;;;;;;22.40;19.23;;;11.70;99.90;;;;;;5032821;28;20169;-79
2021/10/09 02:44:10;;;;;;;25.83;19.50;;;11.70;99.90;;;;;;5033553;28;20271;-79
2021/10/09 02:46:37;;;;;;;29.20;22.92;;;11.60;99.90;;;;;;5033056;28;20711;-79
2021/10/09 02:49:03;;;;;;;22.30;19.40;;;11.60;99.90;;;;;;5033098;28;20157;-79
2021/10/09 02:51:29;;;;;;;25.85;20.52;;;11.60;99.90;;;;;;5016576;28;20844;-79
2021/10/09 02:53:54;;;;;;;28.27;20.73;;;11.60;99.90;;;;;;5050871;28;20209;-79
2021/10/09 02:56:20;;;;;;;23.30;19.57;;;11.60;99.90;;;;;;5033368;28;20629;-79
2021/10/09 02:58:46;;;;;;;21.57;19.00;;;11.50;99.90;;;;;;5050881;28;20280;-79
2021/10/09 03:01:14;;;;;;;21.48;19.15;;;11.50;99.90;;;;;;5033034;28;20534;-79
2021/10/09 03:03:39;;;;;;;25.20;19.00;;;11.50;99.90;;;;;;5033099;28;20177;-79
2021/10/09 03:06:05;;;;;;;21.50;19.20;;;11.50;99.90;;;;;;5051074;28;20636;-79
2021/10/09 03:08:33;;;;;;;21.35;18.35;;;11.50;99.90;;;;;;5054482;28;20185;-79
2021/10/09 03:11:00;;;;;;;22.42;18.00;;;11.50;99.90;;;;;;5033062;28;20207;-79
2021/10/09 03:13:28;;;;;;;21.02;18.92;;;11.50;99.90;;;;;;5032858;28;20244;-79
2021/10/09 03:15:54;;;;;;;23.27;18.20;;;11.50;99.90;;;;;;5034083;28;20258;-79
2021/10/09 03:18:20;;;;;;;22.00;19.67;;;11.50;99.90;;;;;;5020022;28;20205;-79
2021/10/09 03:20:47;;;;;;;21.70;16.75;;;11.40;99.90;;;;;;5036546;28;20162;-79
2021/10/09 03:23:14;;;;;;;25.92;15.82;;;11.40;99.90;;;;;;5020239;28;20169;-79
2021/10/09 03:25:39;;;;;;;19.50;17.10;;;11.40;99.90;;;;;;5036559;28;20660;-79
2021/10/09 03:28:07;;;;;;;18.13;15.65;;;11.40;99.90;;;;;;5036397;28;20193;-79
2021/10/09 03:30:33;;;;;;;20.17;18.07;;;11.40;99.90;;;;;;5053952;28;20180;-79
2021/10/09 03:32:59;;;;;;;20.02;16.10;;;11.40;99.90;;;;;;5036459;28;20211;-79
2021/10/09 03:35:25;;;;;;;19.97;16.50;;;11.30;99.90;;;;;;5036451;28;20169;-79
2021/10/09 03:37:51;;;;;;;18.67;15.88;;;11.30;99.90;;;;;;5036497;28;20242;-79
2021/10/09 03:40:22;;;;;;;22.20;18.38;;;11.30;99.90;;;;;;5036129;28;20256;-79
2021/10/09 03:50:34;;;;;;;20.70;18.50;;;11.30;99.90;;;;;;5036061;28;20177;-79
2021/10/09 03:53:01;;;;;;;19.75;17.63;;;11.20;99.90;;;;;;5036258;28;20722;-79
2021/10/09 03:55:27;;;;;;;19.60;17.40;;;11.20;99.90;;;;;;5035995;28;20169;-79
2021/10/09 03:57:53;;;;;;;20.13;17.88;;;11.20;99.90;;;;;;5019430;28;20664;-79
2021/10/09 04:00:20;;;;;;;20.30;18.20;;;11.20;99.90;;;;;;5035586;28;20692;-79
2021/10/09 04:02:51;;;;;;;24.10;19.50;;;11.20;99.90;;;;;;5019574;28;20196;-80
2021/10/09 04:05:17;;;;;;;20.65;18.65;;;11.20;99.90;;;;;;5035966;28;20169;-80
2021/10/09 04:07:46;;;;;;;21.67;18.10;;;11.20;99.90;;;;;;5035652;28;20208;-79
2021/10/09 04:10:16;;;;;;;21.98;19.15;;;11.10;99.90;;;;;;5035676;28;20629;-79
2021/10/09 04:12:43;;;;;;;21.42;18.70;;;11.10;99.90;;;;;;5034966;28;20197;-80
2021/10/09 04:15:09;;;;;;;22.27;18.63;;;11.10;99.90;;;;;;5035248;28;20161;-80
2021/10/09 04:17:36;;;;;;;20.33;18.10;;;11.10;99.90;;;;;;5018620;28;20680;-79
2021/10/09 04:20:05;;;;;;;23.15;18.15;;;11.10;99.90;;;;;;5036138;28;20200;-79
2021/10/09 04:22:31;;;;;;;22.48;18.65;;;11.10;99.90;;;;;;5022091;28;20526;-80
2021/10/09 04:24:56;;;;;;;20.40;17.67;;;11.10;99.90;;;;;;5035725;28;20223;-79
2021/10/09 04:27:23;;;;;;;21.15;16.85;;;11.10;99.90;;;;;;5034053;28;20243;-79
2021/10/09 04:29:49;;;;;;;21.42;19.08;;;11.10;99.90;;;;;;5035504;28;20590;-79
2021/10/09 04:32:15;;;;;;;20.30;18.00;;;11.00;99.90;;;;;;5034672;28;20189;-80
2021/10/09 04:34:41;;;;;;;22.13;18.38;;;11.10;99.90;;;;;;5035210;28;20220;-79
2021/10/09 04:37:07;;;;;;;21.43;18.50;;;11.10;99.90;;;;;;5035178;28;20553;-80
2021/10/09 04:39:33;;;;;;;21.13;17.00;;;11.10;99.90;;;;;;5035190;28;20176;-79
2021/10/09 04:42:02;;;;;;;20.73;17.80;;;11.10;99.90;;;;;;5018802;28;20853;-79
2021/10/09 04:44:29;;;;;;;21.20;18.83;;;11.10;99.90;;;;;;5034844;28;20185;-79
2021/10/09 04:46:54;;;;;;;19.23;17.15;;;11.10;99.90;;;;;;5034967;28;20311;-79
2021/10/09 04:49:20;;;;;;;21.85;19.48;;;11.00;99.90;;;;;;5035599;28;20172;-79
2021/10/09 04:51:47;;;;;;;21.27;18.95;;;11.10;99.90;;;;;;5034656;28;20180;-78
2021/10/09 04:54:13;;;;;;;22.52;20.00;;;11.00;99.90;;;;;;5034772;28;20184;-79
2021/10/09 04:56:40;;;;;;;22.92;19.30;;;11.10;99.90;;;;;;5034836;28;20175;-79
2021/10/09 04:59:06;;;;;;;25.08;20.92;;;11.00;99.90;;;;;;5036157;28;20558;-79
2021/10/09 05:01:32;;;;;;;24.02;20.02;;;11.00;99.90;;;;;;5034994;28;20196;-79
2021/10/09 05:03:59;;;;;;;27.10;19.60;;;11.00;99.90;;;;;;5018056;28;20180;-79
2021/10/09 05:06:25;;;;;;;24.90;20.97;;;11.00;99.90;;;;;;5034886;28;20169;-79
2021/10/09 05:08:51;;;;;;;23.02;20.48;;;10.90;99.90;;;;;;5052157;28;20607;-78
2021/10/09 05:11:19;;;;;;;23.90;19.92;;;11.00;99.90;;;;;;5034243;28;20172;-79
2021/10/09 05:13:47;;;;;;;27.77;18.73;;;10.90;99.90;;;;;;5034317;28;20236;-79
2021/10/09 05:16:14;;;;;;;24.35;19.95;;;10.90;99.90;;;;;;5034657;28;20196;-79
2021/10/09 05:18:41;;;;;;;23.73;19.38;;;10.90;99.90;;;;;;5034305;28;20236;-79
2021/10/09 05:21:08;;;;;;;19.77;17.47;;;10.90;99.90;;;;;;5051610;28;20245;-80
2021/10/09 05:23:36;;;;;;;22.40;17.90;;;10.80;99.90;;;;;;5034494;28;20177;-80
2021/10/09 05:26:04;;;;;;;20.92;17.25;;;10.80;99.90;;;;;;5034153;28;20248;-79
2021/10/09 05:28:51;;;;;;;17.77;15.80;;;10.80;99.90;;;;;;5018174;28;20677;-80
2021/10/09 05:31:32;;;;;;;21.52;18.95;;;10.80;99.90;;;;;;5033877;28;20252;-81
2021/10/09 05:34:00;;;;;;;19.38;17.25;;;10.80;99.90;;;;;;5034289;28;20217;-81
2021/10/09 05:36:29;;;;;;;19.90;16.90;;;10.70;99.90;;;;;;5019019;28;20235;-80
2021/10/09 05:38:55;;;;;;;21.33;17.60;;;10.70;99.90;;;;;;5034015;28;20189;-80
2021/10/09 05:41:21;;;;;;;19.27;17.30;;;10.70;99.90;;;;;;5033664;28;20259;-81
2021/10/09 05:43:52;;;;;;;17.60;15.65;;;10.70;99.90;;;;;;5036611;28;20175;-81
2021/10/09 05:46:19;;;;;;;22.47;17.87;;;10.60;99.90;;;;;;5002982;28;20704;-81
2021/10/09 05:48:45;;;;;;;21.77;18.90;;;10.60;99.90;;;;;;5003017;28;20703;-81
2021/10/09 05:51:20;;;;;;;19.60;17.52;;;10.60;99.90;;;;;;5020862;28;20256;-81
2021/10/09 06:47:25;;;;;;;18.00;15.98;;;11.20;99.90;;;;;;5031140;28;20185;-79
2021/10/09 07:00:44;;;;;;;21.77;18.50;;;11.50;99.90;;;;;;5034411;28;20162;-79
2021/10/09 07:03:10;;;;;;;24.17;18.90;;;11.60;99.90;;;;;;5044885;28;20537;-79
2021/10/09 07:05:41;;;;;;;21.25;19.02;;;11.70;99.90;;;;;;5037238;28;20183;-79
2021/10/09 07:08:30;;;;;;;21.65;19.30;;;11.80;99.90;;;;;;5037160;28;20196;-78
2021/10/09 07:11:16;;;;;;;21.85;17.92;;;11.90;99.90;;;;;;5053918;28;20173;-79
2021/10/09 07:13:44;;;;;;;24.58;20.05;;;12.00;99.90;;;;;;5037038;28;20275;-80
2021/10/09 07:16:09;;;;;;;21.67;18.93;;;12.10;99.90;;;;;;5036584;28;20700;-78
2021/10/09 07:18:35;;;;;;;23.60;19.10;;;12.20;99.90;;;;;;5036594;28;20243;-79
2021/10/09 07:21:01;;;;;;;24.10;21.40;;;12.20;99.90;;;;;;5036360;28;20888;-80
2021/10/09 07:23:27;;;;;;;26.70;21.95;;;12.30;99.90;;;;;;5028575;28;20185;-79
2021/10/09 07:25:53;;;;;;;25.10;20.47;;;12.30;99.90;;;;;;5040580;28;20547;-79
2021/10/09 07:28:19;;;;;;;20.80;18.60;;;12.40;99.90;;;;;;5055719;28;20253;-79
2021/10/09 07:30:45;;;;;;;23.67;19.50;;;12.50;99.90;;;;;;5034906;28;20263;-79
2021/10/09 07:33:11;;;;;;;23.00;19.43;;;12.60;99.90;;;;;;5036921;28;20231;-79
2021/10/09 07:35:37;;;;;;;21.70;18.15;;;12.70;99.90;;;;;;5018136;28;20583;-79
2021/10/09 07:38:03;;;;;;;22.90;20.35;;;12.80;99.90;;;;;;5034001;28;20278;-79
2021/10/09 07:40:29;;;;;;;22.93;18.70;;;12.90;99.90;;;;;;5034226;28;20276;-79
2021/10/09 07:42:55;;;;;;;22.63;18.48;;;13.00;99.90;;;;;;5015997;28;20173;-79
2021/10/09 07:45:20;;;;;;;20.57;18.47;;;13.20;99.90;;;;;;5034171;28;20176;-79
2021/10/09 07:47:46;;;;;;;22.20;19.37;;;13.30;99.90;;;;;;5033877;28;20193;-79
2021/10/09 07:50:12;;;;;;;21.97;18.70;;;13.40;99.90;;;;;;5033810;28;20170;-80
2021/10/09 07:52:38;;;;;;;20.27;18.03;;;13.60;99.90;;;;;;5015419;28;20197;-79
2021/10/09 07:55:05;;;;;;;19.47;17.27;;;14.00;99.90;;;;;;5016133;28;20947;-78
2021/10/09 07:57:31;;;;;;;23.83;18.20;;;14.40;99.90;;;;;;5033565;28;20653;-78
2021/10/09 07:59:56;;;;;;;19.20;17.20;;;15.20;99.90;;;;;;5033822;28;20569;-78
2021/10/09 08:02:22;;;;;;;25.20;15.27;;;16.10;99.90;;;;;;5033401;28;20249;-78
2021/10/09 08:04:49;;;;;;;15.67;14.00;;;17.10;99.90;;;;;;5038675;28;20179;-79
2021/10/09 08:07:15;;;;;;;17.33;15.53;;;18.20;99.90;;;;;;5016152;28;20254;-79
2021/10/09 08:09:43;;;;;;;17.27;15.60;;;19.00;99.90;;;;;;5033443;28;20568;-78
2021/10/09 08:12:09;;;;;;;15.10;13.57;;;19.70;99.90;;;;;;5015601;28;20197;-78
2021/10/09 08:14:35;;;;;;;15.33;13.40;;;20.50;99.90;;;;;;5015833;28;20581;-78
2021/10/09 08:17:00;;;;;;;16.83;15.13;;;21.20;99.90;;;;;;5033455;28;20208;-78
2021/10/09 08:19:26;;;;;;;14.93;12.53;;;21.90;99.90;;;;;;4999245;28;20266;-81
2021/10/09 08:21:53;;;;;;;13.53;12.00;;;22.60;99.90;;;;;;5033365;28;20560;-79
2021/10/09 08:26:58;;;;;;;14.60;12.20;;;23.80;99.90;;;;;;5015305;28;20985;-79
2021/10/09 08:40:09;;;;;;;17.03;14.50;;;25.80;99.90;;;;;;5015311;28;20582;-79
2021/10/09 08:42:35;;;;;;;11.43;10.43;;;26.50;99.90;;;;;;5019283;28;21128;-80
2021/10/09 08:45:01;;;;;;;11.77;9.93;;;26.80;99.90;;;;;;5033050;28;20568;-79
2021/10/09 08:47:27;;;;;;;11.07;9.60;;;26.80;99.90;;;;;;5033242;28;20818;-79
2021/10/09 08:49:52;;;;;;;12.13;10.57;;;26.80;99.80;;;;;;5033258;28;20612;-79
2021/10/09 08:52:20;;;;;;;12.17;11.07;;;26.50;95.80;;;;;;5032913;28;20208;-79
2021/10/09 08:54:46;;;;;;;10.80;9.80;;;26.40;95.90;;;;;;5015516;28;20189;-80
2021/10/09 08:57:24;;;;;;;9.40;8.60;;;26.40;95.70;;;;;;5003943;28;20611;-79
2021/10/09 08:59:59;;;;;;;10.23;8.97;;;26.70;95.10;;;;;;5013032;28;20217;-79
2021/10/09 09:02:44;;;;;;;10.53;8.93;;;26.90;95.20;;;;;;5010868;28;20680;-79
2021/10/09 09:41:23;;;;;;;11.10;10.00;;;28.60;82.10;;;;;;5012016;28;20561;-80
2021/10/09 09:44:08;;;;;;;9.40;7.83;;;28.90;76.10;;;;;;4995025;28;20926;-80
2021/10/09 09:46:34;;;;;;;10.50;7.90;;;29.00;80.20;;;;;;5012206;28;20607;-80
2021/10/09 09:49:00;;;;;;;9.60;8.67;;;29.30;80.40;;;;;;5010613;28;20629;-80
2021/10/09 09:51:26;;;;;;;8.70;7.90;;;29.70;79.90;;;;;;5011781;28;20208;-80
2021/10/09 09:53:52;;;;;;;10.10;8.77;;;30.00;78.60;;;;;;5010677;28;21224;-80
2021/10/09 09:56:18;;;;;;;10.10;9.10;;;30.30;74.30;;;;;;4997910;28;20666;-79
2021/10/09 09:58:52;;;;;;;8.73;8.00;;;30.00;70.90;;;;;;5011930;28;20579;-78
2021/10/09 10:01:18;;;;;;;9.17;8.37;;;30.10;72.60;;;;;;4994196;28;20574;-78
2021/10/09 10:03:50;;;;;;;10.33;9.07;;;30.40;73.30;;;;;;5011819;28;20586;-78
2021/10/09 10:06:16;;;;;;;9.40;8.57;;;30.60;70.80;;;;;;4978282;28;20644;-79
2021/10/09 10:08:43;;;;;;;8.57;7.77;;;30.60;70.90;;;;;;4994276;28;20605;-78
2021/10/09 10:11:11;;;;;;;7.90;7.10;;;30.70;70.50;;;;;;5011545;28;20256;-79
2021/10/09 10:13:38;;;;;;;9.23;8.23;;;30.80;69.80;;;;;;5011422;28;20621;-79
2021/10/09 10:16:10;;;;;;;9.73;8.20;;;30.70;67.20;;;;;;4978035;28;21215;-79
2021/10/09 10:21:38;;;;;;;7.27;6.60;;;30.50;65.80;;;;;;5028244;28;20647;-73
2021/10/09 10:24:09;;;;;;;8.90;8.10;;;30.50;67.30;;;;;;5012676;28;20924;-73
2021/10/09 10:26:34;;;;;;;9.13;8.33;;;30.50;65.20;;;;;;5029460;28;20597;-73
2021/10/09 10:29:00;;;;;;;8.83;8.03;;;30.40;66.30;;;;;;5028862;28;20648;-73
2021/10/09 10:31:28;;;;;;;8.90;7.83;;;30.50;66.40;;;;;;5026237;28;20184;-73
2021/10/09 10:34:23;;;;;;;9.37;8.43;;;30.60;66.10;;;;;;5035261;28;20662;-73
2021/10/09 10:36:49;;;;;;;10.90;7.87;;;30.70;63.80;;;;;;5034221;28;20568;-73
2021/10/09 10:39:20;;;;;;;9.37;7.83;;;30.70;64.20;;;;;;5035149;28;20571;-73
2021/10/09 10:42:06;;;;;;;8.80;8.00;;;30.70;63.80;;;;;;5034947;28;20576;-73
2021/10/09 10:47:51;;;;;;;9.43;7.10;;;30.60;62.30;;;;;;5035358;28;20564;-73
2021/10/09 10:56:56;;;;;;;8.17;7.47;;;30.50;62.30;;;;;;5034573;28;21008;-73
2021/10/09 10:59:31;;;;;;;9.50;8.20;;;30.30;58.00;;;;;;5023704;28;20626;-73
2021/10/09 11:02:21;;;;;;;10.57;8.23;;;29.90;57.40;;;;;;5029365;28;21237;-73
2021/10/09 11:04:50;;;;;;;8.63;7.90;;;29.80;59.10;;;;;;5034679;28;20600;-73
2021/10/09 11:07:19;;;;;;;8.57;7.50;;;29.60;56.90;;;;;;5033692;28;20582;-73
2021/10/09 11:09:46;;;;;;;6.90;6.30;;;29.30;57.50;;;;;;5034638;28;20588;-73
2021/10/09 11:12:19;;;;;;;6.70;6.10;;;29.20;58.20;;;;;;5034418;28;20711;-74
2021/10/09 11:14:44;;;;;;;13.87;7.83;;;29.10;57.20;;;;;;5033271;28;20588;-73
2021/10/09 11:17:10;;;;;;;8.20;7.50;;;29.10;58.80;;;;;;5034741;28;20936;-73
2021/10/09 11:19:50;;;;;;;8.33;7.63;;;29.20;58.60;;;;;;5034238;28;20260;-73
2021/10/09 11:22:18;;;;;;;6.90;6.10;;;29.30;58.80;;;;;;5033113;28;20583;-73
2021/10/09 11:24:51;;;;;;;7.03;6.30;;;29.40;59.00;;;;;;5033027;28;20654;-73
2021/10/09 11:27:18;;;;;;;7.87;7.07;;;29.30;58.10;;;;;;5034572;28;20573;-73
2021/10/09 11:30:27;;;;;;;7.47;6.80;;;29.30;58.10;;;;;;5034512;28;20600;-73
2021/10/09 11:32:55;;;;;;;7.67;6.87;;;29.30;57.90;;;;;;5030584;28;20651;-74
2021/10/09 11:35:33;;;;;;;10.30;9.30;;;29.40;58.50;;;;;;5034162;28;20616;-74
2021/10/09 11:38:00;;;;;;;8.50;7.53;;;29.40;57.90;;;;;;5036259;28;20572;-74
2021/10/09 11:40:42;;;;;;;8.73;6.60;;;29.40;58.30;;;;;;5034020;28;21175;-74
2021/10/09 11:43:37;;;;;;;7.37;5.80;;;29.30;57.00;;;;;;5034189;28;20579;-75
2021/10/09 11:46:25;;;;;;;5.63;5.10;;;29.20;56.50;;;;;;5033973;28;20564;-74
2021/10/09 11:56:59;;;;;;;5.67;5.07;;;28.40;56.10;;;;;;5033805;28;20560;-74
2021/10/09 11:59:40;;;;;;;6.47;5.87;;;28.30;56.40;;;;;;5033313;28;20953;-74
2021/10/09 12:02:10;;;;;;;5.60;5.10;;;28.20;56.50;;;;;;5023883;28;20170;-73
2021/10/09 12:04:36;;;;;;;6.33;5.67;;;28.10;57.00;;;;;;5032773;28;20568;-74
2021/10/09 12:09:42;;;;;;;6.47;4.10;;;28.00;56.50;;;;;;5033615;28;20587;-74
2021/10/09 12:12:15;;;;;;;5.87;5.00;;;27.90;56.80;;;;;;5033129;28;20560;-74
2021/10/09 12:14:41;;;;;;;6.00;5.40;;;27.90;56.60;;;;;;5033742;28;20916;-74
2021/10/09 12:17:06;;;;;;;6.43;5.93;;;27.80;56.70;;;;;;5035472;28;20568;-74
2021/10/09 12:19:32;;;;;;;6.77;5.73;;;27.60;56.50;;;;;;5033366;28;20263;-74
2021/10/09 12:22:11;;;;;;;7.17;6.47;;;27.40;56.40;;;;;;5031747;28;20260;-75
2021/10/09 12:24:51;;;;;;;6.43;5.73;;;27.10;55.00;;;;;;5032181;28;20626;-74
2021/10/09 12:27:28;;;;;;;6.90;6.30;;;26.60;55.20;;;;;;5033196;28;20572;-74
2021/10/09 12:30:08;;;;;;;6.43;5.23;;;26.10;54.30;;;;;;5033541;28;20683;-76
2021/10/09 12:32:39;;;;;;;7.10;5.80;;;25.40;54.70;;;;;;5032664;28;21010;-75
2021/10/09 12:35:19;;;;;;;7.93;4.33;;;24.80;54.80;;;;;;5033239;28;20577;-75
2021/10/09 12:38:04;;;;;;;8.73;5.00;;;24.30;54.90;;;;;;5031838;28;20933;-75
2021/10/09 12:40:43;;;;;;;7.23;5.90;;;23.70;55.30;;;;;;5032778;28;20624;-75
2021/10/09 12:43:12;;;;;;;5.60;4.50;;;23.20;55.60;;;;;;5031735;28;20584;-75
2021/10/09 12:45:39;;;;;;;5.90;4.70;;;22.90;55.90;;;;;;5033281;28;20979;-74
2021/10/09 12:48:05;;;;;;;7.30;4.97;;;22.60;56.70;;;;;;5030941;28;20588;-73
2021/10/09 12:50:40;;;;;;;6.63;5.20;;;22.40;56.40;;;;;;5030971;28;20687;-73
2021/10/09 12:53:07;;;;;;;7.20;5.37;;;22.20;57.00;;;;;;5035553;28;20726;-73
2021/10/09 12:55:34;;;;;;;6.53;5.20;;;22.00;57.50;;;;;;5032879;28;20576;-75
2021/10/09 12:58:02;;;;;;;8.77;5.70;;;21.90;57.60;;;;;;5031218;28;20569;-74
2021/10/09 13:00:29;;;;;;;6.30;4.80;;;21.70;57.90;;;;;;5032336;28;20604;-74
2021/10/09 13:02:57;;;;;;;8.27;5.03;;;21.60;58.40;;;;;;5031547;28;21036;-74
2021/10/09 13:05:25;;;;;;;6.57;5.40;;;21.50;58.70;;;;;;5032616;28;20572;-74
2021/10/09 13:07:51;;;;;;;7.70;4.83;;;21.40;58.90;;;;;;5032581;28;20600;-73
2021/10/09 13:10:19;;;;;;;8.07;5.13;;;21.30;59.10;;;;;;5032115;28;20654;-73
2021/10/09 13:12:45;;;;;;;5.43;4.53;;;21.20;59.60;;;;;;5032623;28;21046;-74
2021/10/09 13:15:17;;;;;;;7.93;5.30;;;21.10;59.80;;;;;;5031113;28;20564;-73
2021/10/09 13:17:46;;;;;;;7.17;5.30;;;20.90;59.50;;;;;;5031218;28;20722;-74
2021/10/09 13:20:13;;;;;;;5.20;4.60;;;20.80;59.60;;;;;;5032142;28;20608;-75
2021/10/09 13:22:39;;;;;;;5.53;4.40;;;20.70;59.70;;;;;;5031910;28;20727;-74
2021/10/09 13:25:05;;;;;;;7.22;5.32;;;20.60;60.90;;;;;;5031338;28;20801;-74
2021/10/09 13:27:31;;;;;;;5.53;3.90;;;20.40;60.70;;;;;;5032701;28;20515;-74
2021/10/09 13:29:58;;;;;;;5.30;3.50;;;20.40;60.30;;;;;;5033090;28;20611;-73
2021/10/09 13:32:25;;;;;;;4.97;3.70;;;20.40;60.70;;;;;;5031720;28;20564;-73
2021/10/09 13:34:51;;;;;;;5.63;4.50;;;20.40;60.50;;;;;;5030639;28;20581;-73
2021/10/09 13:37:21;;;;;;;6.03;4.10;;;20.40;60.60;;;;;;5031992;28;20568;-74
2021/10/09 13:39:47;;;;;;;5.47;3.60;;;20.40;60.50;;;;;;5031813;28;20596;-74
2021/10/09 13:42:13;;;;;;;4.40;3.50;;;20.40;60.60;;;;;;5030338;28;20695;-74
2021/10/09 13:44:39;;;;;;;4.87;3.47;;;20.50;60.70;;;;;;5031941;28;20988;-74
2021/10/09 13:47:05;;;;;;;4.17;3.30;;;20.50;60.80;;;;;;5032145;28;20561;-73
2021/10/09 13:49:31;;;;;;;7.07;3.97;;;20.50;60.70;;;;;;5031624;28;20600;-73
2021/10/09 13:51:57;;;;;;;5.83;3.50;;;20.40;61.10;;;;;;5031270;28;20638;-73
2021/10/09 13:54:23;;;;;;;6.30;4.70;;;20.40;60.80;;;;;;5031862;28;20588;-73
2021/10/09 13:56:49;;;;;;;5.40;4.03;;;20.40;61.00;;;;;;5031475;28;20583;-73
2021/10/09 13:59:15;;;;;;;6.17;3.80;;;20.40;61.00;;;;;;5031664;28;20919;-73
2021/10/09 14:01:56;;;;;;;4.10;3.70;;;20.40;61.10;;;;;;5032575;28;20216;-75
2021/10/09 14:04:22;;;;;;;4.50;3.40;;;20.40;61.20;;;;;;5030627;28;20542;-75
2021/10/09 14:06:48;;;;;;;5.40;3.80;;;20.50;61.20;;;;;;5035079;28;20576;-74
2021/10/09 14:09:13;;;;;;;4.37;3.97;;;20.50;61.20;;;;;;5030327;28;20572;-74
2021/10/09 14:11:39;;;;;;;6.20;3.87;;;20.40;61.20;;;;;;5031102;28;20239;-74
2021/10/09 14:14:06;;;;;;;5.77;3.90;;;20.50;61.60;;;;;;5031631;28;20197;-74
2021/10/09 14:16:32;;;;;;;6.53;3.73;;;20.50;61.50;;;;;;5030187;28;20622;-74
2021/10/09 14:19:24;;;;;;;4.50;4.10;;;20.50;61.30;;;;;;5043416;28;20615;-75
2021/10/09 14:22:06;;;;;;;4.90;3.77;;;20.40;61.30;;;;;;5040774;28;20178;-75
2021/10/09 14:24:32;;;;;;;5.77;3.00;;;20.50;61.70;;;;;;5030184;28;20639;-74
2021/10/09 14:26:57;;;;;;;4.20;3.70;;;20.50;61.40;;;;;;5031318;28;20172;-74
2021/10/09 14:29:23;;;;;;;4.50;3.57;;;20.50;61.70;;;;;;5031495;28;20189;-74
2021/10/09 14:31:48;;;;;;;6.53;3.67;;;20.50;61.70;;;;;;5029630;28;20173;-75
2021/10/09 14:34:14;;;;;;;4.10;3.20;;;20.50;61.80;;;;;;5031275;28;20201;-74
2021/10/09 14:36:40;;;;;;;7.20;3.57;;;20.50;61.60;;;;;;5030972;28;20588;-74
2021/10/09 14:39:06;;;;;;;3.53;2.93;;;20.50;61.70;;;;;;5031119;28;20209;-74
2021/10/09 14:41:31;;;;;;;4.70;3.80;;;20.50;61.70;;;;;;5031546;28;20716;-74
2021/10/09 14:43:58;;;;;;;4.30;3.90;;;20.50;61.70;;;;;;5034245;28;21015;-75
2021/10/09 14:49:07;;;;;;;3.80;3.33;;;20.40;61.70;;;;;;5031169;28;20610;-75
2021/10/09 14:54:28;;;;;;;4.83;3.83;;;20.40;61.70;;;;;;5030735;28;20619;-75
2021/10/09 15:02:35;;;;;;;5.17;3.77;;;20.50;62.40;;;;;;5030356;28;20865;-75
2021/10/09 15:18:43;;;;;;;3.67;3.10;;;20.40;63.00;;;;;;5034556;28;20575;-75
2021/10/09 15:21:09;;;;;;;10.80;3.77;;;20.40;63.40;;;;;;5037358;28;20956;-75
2021/10/09 15:23:34;;;;;;;4.23;3.00;;;20.40;63.70;;;;;;5034612;28;20582;-74
2021/10/09 15:26:00;;;;;;;5.33;3.40;;;20.40;63.70;;;;;;5033402;28;20180;-74
2021/10/09 15:28:26;;;;;;;8.60;3.40;;;20.30;63.70;;;;;;5034432;28;20572;-74
2021/10/09 15:30:52;;;;;;;7.10;4.00;;;20.30;64.10;;;;;;5032846;28;20596;-74
2021/10/09 15:33:19;;;;;;;5.47;3.60;;;20.30;64.50;;;;;;5034429;28;20661;-74
2021/10/09 15:35:45;;;;;;;5.50;3.77;;;20.30;64.40;;;;;;5034173;28;20170;-74
2021/10/09 15:38:11;;;;;;;3.90;3.53;;;20.20;64.50;;;;;;5033163;28;20560;-74
2021/10/09 15:40:36;;;;;;;3.80;2.93;;;20.20;64.50;;;;;;5033827;28;20690;-75
2021/10/09 15:43:02;;;;;;;7.33;3.90;;;20.10;64.50;;;;;;5034307;28;20170;-75
2021/10/09 15:45:28;;;;;;;4.20;3.50;;;20.10;64.70;;;;;;5034029;28;20572;-74